sensor_id;sensor_type;location;lat;lon;timestamp;pressure;altitude;pressure_sealevel;temperature;humidity
14117;BME280;7137;51.436;6.544;2023-02-15T00:02:22;102514.56;;;4.93;91.47
14117;BME280;7137;51.436;6.544;2023-02-15T00:05:25;102515.25;;;4.85;91.16
14117;BME280;7137;51.436;6.544;2023-02-15T00:08:27;102512.47;;;4.77;91.76
14117;BME280;7137;51.436;6.544;2023-02-15T00:11:29;102509.75;;;4.69;92.80
14117;BME280;7137;51.436;6.544;2023-02-15T00:14:51;102513.56;;;4.87;91.54
14117;BME280;7137;51.436;6.544;2023-02-15T00:17:53;102511.75;;;4.83;91.78
14117;BME280;7137;51.436;6.544;2023-02-15T00:20:56;102507.88;;;4.64;92.18
14117;BME280;7137;51.436;6.544;2023-02-15T00:23:58;102499.22;;;4.62;92.02
14117;BME280;7137;51.436;6.544;2023-02-15T00:27:00;102493.97;;;4.59;92.36
14117;BME280;7137;51.436;6.544;2023-02-15T00:30:02;102495.66;;;4.57;92.95
14117;BME280;7137;51.436;6.544;2023-02-15T00:33:04;102489.59;;;4.56;92.87
14117;BME280;7137;51.436;6.544;2023-02-15T00:36:09;102483.66;;;4.60;92.40
14117;BME280;7137;51.436;6.544;2023-02-15T00:39:11;102487.09;;;4.59;92.46
14117;BME280;7137;51.436;6.544;2023-02-15T00:42:13;102477.41;;;4.51;93.09
14117;BME280;7137;51.436;6.544;2023-02-15T00:45:15;102491.94;;;4.45;92.58
14117;BME280;7137;51.436;6.544;2023-02-15T00:48:17;102488.44;;;4.42;92.81
14117;BME280;7137;51.436;6.544;2023-02-15T00:51:20;102483.31;;;4.45;92.88
14117;BME280;7137;51.436;6.544;2023-02-15T00:54:21;102491.16;;;4.50;91.39
14117;BME280;7137;51.436;6.544;2023-02-15T00:57:23;102492.50;;;4.32;93.72
14117;BME280;7137;51.436;6.544;2023-02-15T01:00:25;102482.06;;;4.28;93.63
14117;BME280;7137;51.436;6.544;2023-02-15T01:03:26;102487.38;;;4.34;93.46
14117;BME280;7137;51.436;6.544;2023-02-15T01:06:29;102487.34;;;4.32;93.05
14117;BME280;7137;51.436;6.544;2023-02-15T01:09:31;102487.19;;;4.25;93.67
14117;BME280;7137;51.436;6.544;2023-02-15T01:12:33;102487.78;;;4.14;93.99
14117;BME280;7137;51.436;6.544;2023-02-15T01:15:35;102491.31;;;4.18;93.60
14117;BME280;7137;51.436;6.544;2023-02-15T01:18:36;102488.59;;;4.12;94.29
14117;BME280;7137;51.436;6.544;2023-02-15T01:21:39;102482.63;;;4.14;93.69
14117;BME280;7137;51.436;6.544;2023-02-15T01:24:41;102478.25;;;4.12;93.59
14117;BME280;7137;51.436;6.544;2023-02-15T01:27:42;102487.69;;;4.10;94.44
14117;BME280;7137;51.436;6.544;2023-02-15T01:30:44;102478.94;;;4.05;94.27
14117;BME280;7137;51.436;6.544;2023-02-15T01:33:46;102471.94;;;4.01;94.50
14117;BME280;7137;51.436;6.544;2023-02-15T01:36:49;102476.34;;;4.05;94.61
14117;BME280;7137;51.436;6.544;2023-02-15T01:39:51;102472.84;;;4.03;94.35
14117;BME280;7137;51.436;6.544;2023-02-15T01:42:54;102462.34;;;3.95;94.52
14117;BME280;7137;51.436;6.544;2023-02-15T01:45:56;102464.84;;;3.92;94.87
14117;BME280;7137;51.436;6.544;2023-02-15T01:49:02;102464.94;;;3.95;94.10
14117;BME280;7137;51.436;6.544;2023-02-15T01:52:11;102455.34;;;3.91;94.13
14117;BME280;7137;51.436;6.544;2023-02-15T01:55:15;102465.09;;;4.03;93.43
14117;BME280;7137;51.436;6.544;2023-02-15T01:58:18;102458.41;;;4.11;92.68
14117;BME280;7137;51.436;6.544;2023-02-15T02:01:20;102451.94;;;3.94;93.55
14117;BME280;7137;51.436;6.544;2023-02-15T02:04:27;102453.63;;;3.92;93.55
14117;BME280;7137;51.436;6.544;2023-02-15T02:07:36;102452.84;;;3.94;94.17
14117;BME280;7137;51.436;6.544;2023-02-15T02:10:40;102443.50;;;4.01;93.13
14117;BME280;7137;51.436;6.544;2023-02-15T02:13:43;102441.53;;;3.91;93.15
14117;BME280;7137;51.436;6.544;2023-02-15T02:16:52;102437.94;;;3.84;93.95
14117;BME280;7137;51.436;6.544;2023-02-15T02:20:29;102436.28;;;3.86;94.07
14117;BME280;7137;51.436;6.544;2023-02-15T02:23:51;102429.03;;;3.71;94.48
14117;BME280;7137;51.436;6.544;2023-02-15T02:27:16;102424.78;;;3.75;94.64
14117;BME280;7137;51.436;6.544;2023-02-15T02:30:44;102426.13;;;3.59;94.66
14117;BME280;7137;51.436;6.544;2023-02-15T02:33:58;102411.22;;;3.83;93.63
14117;BME280;7137;51.436;6.544;2023-02-15T02:37:10;102412.97;;;3.84;93.40
14117;BME280;7137;51.436;6.544;2023-02-15T02:40:19;102407.59;;;3.77;94.44
14117;BME280;7137;51.436;6.544;2023-02-15T02:43:29;102404.38;;;3.85;92.63
14117;BME280;7137;51.436;6.544;2023-02-15T02:46:35;102400.06;;;3.84;93.63
14117;BME280;7137;51.436;6.544;2023-02-15T02:49:41;102400.09;;;3.86;93.38
14117;BME280;7137;51.436;6.544;2023-02-15T02:52:46;102398.16;;;3.77;93.46
14117;BME280;7137;51.436;6.544;2023-02-15T02:55:51;102389.00;;;3.54;95.21
14117;BME280;7137;51.436;6.544;2023-02-15T02:58:58;102388.19;;;3.56;95.12
14117;BME280;7137;51.436;6.544;2023-02-15T03:02:05;102392.41;;;3.53;95.17
14117;BME280;7137;51.436;6.544;2023-02-15T03:05:16;102387.06;;;3.47;95.75
14117;BME280;7137;51.436;6.544;2023-02-15T03:08:23;102385.28;;;3.44;96.09
14117;BME280;7137;51.436;6.544;2023-02-15T03:11:28;102387.94;;;3.47;95.63
14117;BME280;7137;51.436;6.544;2023-02-15T03:14:30;102383.69;;;3.49;95.35
14117;BME280;7137;51.436;6.544;2023-02-15T03:17:34;102384.34;;;3.41;95.43
14117;BME280;7137;51.436;6.544;2023-02-15T03:20:39;102383.63;;;3.46;95.55
14117;BME280;7137;51.436;6.544;2023-02-15T03:23:40;102377.50;;;3.43;95.43
14117;BME280;7137;51.436;6.544;2023-02-15T03:26:44;102373.19;;;3.42;96.27
14117;BME280;7137;51.436;6.544;2023-02-15T03:29:50;102373.88;;;3.36;95.53
14117;BME280;7137;51.436;6.544;2023-02-15T03:32:53;102371.34;;;3.38;95.62
14117;BME280;7137;51.436;6.544;2023-02-15T03:36:00;102371.31;;;3.36;95.33
14117;BME280;7137;51.436;6.544;2023-02-15T03:39:09;102371.22;;;3.33;95.99
14117;BME280;7137;51.436;6.544;2023-02-15T03:42:14;102371.28;;;3.35;96.04
14117;BME280;7137;51.436;6.544;2023-02-15T03:45:23;102366.94;;;3.34;95.73
14117;BME280;7137;51.436;6.544;2023-02-15T03:48:28;102371.09;;;3.27;95.83
14117;BME280;7137;51.436;6.544;2023-02-15T03:51:35;102367.53;;;3.23;96.09
14117;BME280;7137;51.436;6.544;2023-02-15T03:54:39;102364.06;;;3.21;95.93
14117;BME280;7137;51.436;6.544;2023-02-15T03:57:46;102366.78;;;3.26;95.24
14117;BME280;7137;51.436;6.544;2023-02-15T04:01:12;102366.59;;;3.20;95.56
14117;BME280;7137;51.436;6.544;2023-02-15T04:04:34;102364.63;;;3.10;96.12
14117;BME280;7137;51.436;6.544;2023-02-15T04:07:38;102362.13;;;3.13;96.09
14117;BME280;7137;51.436;6.544;2023-02-15T04:10:39;102363.66;;;3.06;96.57
14117;BME280;7137;51.436;6.544;2023-02-15T04:13:52;102364.00;;;3.20;95.64
14117;BME280;7137;51.436;6.544;2023-02-15T04:16:56;102368.50;;;3.27;95.26
14117;BME280;7137;51.436;6.544;2023-02-15T04:19:57;102362.00;;;3.08;96.01
14117;BME280;7137;51.436;6.544;2023-02-15T04:23:17;102360.22;;;3.06;96.07
14117;BME280;7137;51.436;6.544;2023-02-15T04:26:36;102362.13;;;3.13;96.20
14117;BME280;7137;51.436;6.544;2023-02-15T04:29:38;102354.97;;;3.03;96.42
14117;BME280;7137;51.436;6.544;2023-02-15T04:32:39;102362.47;;;2.93;96.60
14117;BME280;7137;51.436;6.544;2023-02-15T04:35:43;102349.66;;;2.96;96.13
14117;BME280;7137;51.436;6.544;2023-02-15T04:38:46;102348.69;;;2.93;96.79
14117;BME280;7137;51.436;6.544;2023-02-15T04:41:48;102345.22;;;2.92;96.63
14117;BME280;7137;51.436;6.544;2023-02-15T04:44:49;102347.84;;;2.94;96.19
14117;BME280;7137;51.436;6.544;2023-02-15T04:47:51;102356.25;;;2.85;96.92
14117;BME280;7137;51.436;6.544;2023-02-15T04:50:53;102348.47;;;2.84;96.96
14117;BME280;7137;51.436;6.544;2023-02-15T04:53:55;102350.13;;;2.82;97.00
14117;BME280;7137;51.436;6.544;2023-02-15T04:56:57;102355.28;;;2.82;96.96
14117;BME280;7137;51.436;6.544;2023-02-15T05:00:00;102347.63;;;2.85;96.69
14117;BME280;7137;51.436;6.544;2023-02-15T05:03:03;102343.28;;;2.82;96.61
14117;BME280;7137;51.436;6.544;2023-02-15T05:06:05;102339.56;;;2.73;97.13
14117;BME280;7137;51.436;6.544;2023-02-15T05:09:08;102342.25;;;2.77;96.44
14117;BME280;7137;51.436;6.544;2023-02-15T05:12:09;102341.25;;;2.72;96.48
14117;BME280;7137;51.436;6.544;2023-02-15T05:15:11;102335.28;;;2.73;96.93
14117;BME280;7137;51.436;6.544;2023-02-15T05:18:12;102326.63;;;2.71;96.49
14117;BME280;7137;51.436;6.544;2023-02-15T05:21:14;102331.81;;;2.73;96.73
14117;BME280;7137;51.436;6.544;2023-02-15T05:24:18;102325.13;;;2.81;96.53
14117;BME280;7137;51.436;6.544;2023-02-15T05:27:36;102324.22;;;2.79;96.17
14117;BME280;7137;51.436;6.544;2023-02-15T05:31:02;102325.09;;;2.79;96.58
14117;BME280;7137;51.436;6.544;2023-02-15T05:34:04;102318.84;;;2.70;96.78
14117;BME280;7137;51.436;6.544;2023-02-15T05:37:06;102326.13;;;2.84;95.86
14117;BME280;7137;51.436;6.544;2023-02-15T05:40:10;102318.16;;;2.77;96.44
14117;BME280;7137;51.436;6.544;2023-02-15T05:43:12;102316.66;;;2.85;96.20
14117;BME280;7137;51.436;6.544;2023-02-15T05:46:14;102308.16;;;2.89;95.49
14117;BME280;7137;51.436;6.544;2023-02-15T05:49:15;102312.66;;;2.96;95.60
14117;BME280;7137;51.436;6.544;2023-02-15T05:52:17;102316.53;;;2.80;96.16
14117;BME280;7137;51.436;6.544;2023-02-15T05:55:20;102315.44;;;2.71;96.87
14117;BME280;7137;51.436;6.544;2023-02-15T05:58:22;102305.03;;;2.67;97.49
14117;BME280;7137;51.436;6.544;2023-02-15T06:01:23;102307.50;;;2.64;98.19
14117;BME280;7137;51.436;6.544;2023-02-15T06:04:25;102315.06;;;2.57;98.02
14117;BME280;7137;51.436;6.544;2023-02-15T06:07:26;102312.66;;;2.64;97.65
14117;BME280;7137;51.436;6.544;2023-02-15T06:10:29;102320.59;;;2.71;97.52
14117;BME280;7137;51.436;6.544;2023-02-15T06:13:32;102321.31;;;2.66;97.21
14117;BME280;7137;51.436;6.544;2023-02-15T06:16:33;102321.38;;;2.68;96.95
14117;BME280;7137;51.436;6.544;2023-02-15T06:19:35;102324.63;;;2.61;97.17
14117;BME280;7137;51.436;6.544;2023-02-15T06:22:36;102325.59;;;2.66;96.80
14117;BME280;7137;51.436;6.544;2023-02-15T06:25:40;102319.41;;;2.59;97.15
14117;BME280;7137;51.436;6.544;2023-02-15T06:28:41;102323.00;;;2.64;96.99
14117;BME280;7137;51.436;6.544;2023-02-15T06:31:43;102339.59;;;2.74;96.16
14117;BME280;7137;51.436;6.544;2023-02-15T06:34:44;102334.13;;;2.63;97.13
14117;BME280;7137;51.436;6.544;2023-02-15T06:37:46;102331.53;;;2.62;97.16
14117;BME280;7137;51.436;6.544;2023-02-15T06:40:49;102335.81;;;2.61;97.20
14117;BME280;7137;51.436;6.544;2023-02-15T06:43:50;102335.00;;;2.64;97.09
14117;BME280;7137;51.436;6.544;2023-02-15T06:46:52;102336.75;;;2.65;97.47
14117;BME280;7137;51.436;6.544;2023-02-15T06:49:54;102336.56;;;2.57;97.43
14117;BME280;7137;51.436;6.544;2023-02-15T06:52:56;102344.59;;;2.68;96.64
14117;BME280;7137;51.436;6.544;2023-02-15T06:56:02;102344.34;;;2.59;97.57
14117;BME280;7137;51.436;6.544;2023-02-15T06:59:06;102343.00;;;2.73;97.07
14117;BME280;7137;51.436;6.544;2023-02-15T07:02:10;102341.88;;;2.63;97.34
14117;BME280;7137;51.436;6.544;2023-02-15T07:05:12;102331.78;;;2.71;96.83
14117;BME280;7137;51.436;6.544;2023-02-15T07:08:14;102325.22;;;2.82;96.30
14117;BME280;7137;51.436;6.544;2023-02-15T07:11:17;102320.84;;;2.81;95.96
14117;BME280;7137;51.436;6.544;2023-02-15T07:14:36;102316.50;;;2.79;96.73
14117;BME280;7137;51.436;6.544;2023-02-15T07:17:38;102314.22;;;2.91;95.58
14117;BME280;7137;51.436;6.544;2023-02-15T07:20:40;102313.59;;;3.00;95.40
14117;BME280;7137;51.436;6.544;2023-02-15T07:23:41;102310.25;;;3.04;95.11
14117;BME280;7137;51.436;6.544;2023-02-15T07:26:44;102300.56;;;2.95;96.20
14117;BME280;7137;51.436;6.544;2023-02-15T07:29:46;102298.41;;;3.10;95.61
14117;BME280;7137;51.436;6.544;2023-02-15T07:32:48;102306.34;;;3.19;94.22
14117;BME280;7137;51.436;6.544;2023-02-15T07:36:07;102296.78;;;3.15;93.82
14117;BME280;7137;51.436;6.544;2023-02-15T07:39:11;102301.38;;;3.27;94.20
14117;BME280;7137;51.436;6.544;2023-02-15T07:42:14;102300.66;;;3.33;93.84
14117;BME280;7137;51.436;6.544;2023-02-15T07:45:16;102297.16;;;3.31;93.73
14117;BME280;7137;51.436;6.544;2023-02-15T07:48:17;102290.53;;;3.42;93.04
14117;BME280;7137;51.436;6.544;2023-02-15T07:51:19;102289.78;;;3.46;93.56
14117;BME280;7137;51.436;6.544;2023-02-15T07:54:21;102281.50;;;3.61;92.60
14117;BME280;7137;51.436;6.544;2023-02-15T07:57:24;102278.94;;;3.62;91.62
14117;BME280;7137;51.436;6.544;2023-02-15T08:00:25;102281.72;;;3.70;91.71
14117;BME280;7137;51.436;6.544;2023-02-15T08:03:27;102286.19;;;3.78;92.48
14117;BME280;7137;51.436;6.544;2023-02-15T08:06:31;102279.66;;;3.94;91.76
14117;BME280;7137;51.436;6.544;2023-02-15T08:09:33;102280.63;;;3.99;91.54
14117;BME280;7137;51.436;6.544;2023-02-15T08:12:37;102280.75;;;4.07;91.22
14117;BME280;7137;51.436;6.544;2023-02-15T08:15:39;102270.63;;;4.17;90.73
14117;BME280;7137;51.436;6.544;2023-02-15T08:18:40;102271.97;;;4.41;89.28
14117;BME280;7137;51.436;6.544;2023-02-15T08:21:44;102268.75;;;4.53;90.00
14117;BME280;7137;51.436;6.544;2023-02-15T08:24:46;102258.91;;;4.82;87.88
14117;BME280;7137;51.436;6.544;2023-02-15T08:27:49;102255.97;;;5.13;86.52
14117;BME280;7137;51.436;6.544;2023-02-15T08:30:50;102258.13;;;5.42;85.74
14117;BME280;7137;51.436;6.544;2023-02-15T08:33:54;102253.09;;;5.49;83.89
14117;BME280;7137;51.436;6.544;2023-02-15T08:36:56;102254.00;;;5.53;84.37
14117;BME280;7137;51.436;6.544;2023-02-15T08:39:57;102257.41;;;7.00;81.48
14117;BME280;7137;51.436;6.544;2023-02-15T08:43:00;102251.28;;;9.45;68.91
14117;BME280;7137;51.436;6.544;2023-02-15T08:46:02;102251.97;;;11.30;62.28
14117;BME280;7137;51.436;6.544;2023-02-15T08:49:04;102257.91;;;12.83;57.15
14117;BME280;7137;51.436;6.544;2023-02-15T08:52:06;102250.63;;;13.53;52.45
14117;BME280;7137;51.436;6.544;2023-02-15T08:55:07;102257.06;;;13.81;49.37
14117;BME280;7137;51.436;6.544;2023-02-15T08:58:10;102265.78;;;13.83;50.36
14117;BME280;7137;51.436;6.544;2023-02-15T09:01:14;102256.53;;;13.62;50.93
14117;BME280;7137;51.436;6.544;2023-02-15T09:04:20;102250.44;;;14.04;49.34
14117;BME280;7137;51.436;6.544;2023-02-15T09:07:22;102248.94;;;13.93;48.45
14117;BME280;7137;51.436;6.544;2023-02-15T09:10:24;102249.38;;;14.14;48.97
14117;BME280;7137;51.436;6.544;2023-02-15T09:13:27;102244.91;;;13.76;48.71
14117;BME280;7137;51.436;6.544;2023-02-15T09:16:30;102245.56;;;14.27;48.02
14117;BME280;7137;51.436;6.544;2023-02-15T09:19:32;102250.19;;;14.93;46.15
14117;BME280;7137;51.436;6.544;2023-02-15T09:22:34;102244.47;;;15.11;45.53
14117;BME280;7137;51.436;6.544;2023-02-15T09:25:35;102243.56;;;14.38;46.70
14117;BME280;7137;51.436;6.544;2023-02-15T09:28:39;102237.19;;;13.68;49.50
14117;BME280;7137;51.436;6.544;2023-02-15T09:31:43;102233.31;;;13.41;50.03
14117;BME280;7137;51.436;6.544;2023-02-15T09:34:45;102241.28;;;13.35;50.13
14117;BME280;7137;51.436;6.544;2023-02-15T09:37:47;102236.94;;;13.79;49.28
14117;BME280;7137;51.436;6.544;2023-02-15T09:40:54;102232.56;;;13.81;49.46
14117;BME280;7137;51.436;6.544;2023-02-15T09:44:11;102234.59;;;13.19;50.03
14117;BME280;7137;51.436;6.544;2023-02-15T09:47:30;102232.69;;;13.28;50.56
14117;BME280;7137;51.436;6.544;2023-02-15T09:50:43;102231.69;;;12.26;53.29
14117;BME280;7137;51.436;6.544;2023-02-15T09:54:09;102236.13;;;13.32;51.37
14117;BME280;7137;51.436;6.544;2023-02-15T09:57:21;102235.72;;;13.02;51.87
14117;BME280;7137;51.436;6.544;2023-02-15T10:00:37;102232.63;;;13.31;52.30
14117;BME280;7137;51.436;6.544;2023-02-15T10:03:52;102235.34;;;13.27;53.82
14117;BME280;7137;51.436;6.544;2023-02-15T10:07:06;102244.97;;;13.26;52.08
14117;BME280;7137;51.436;6.544;2023-02-15T10:10:18;102236.25;;;12.70;53.23
14117;BME280;7137;51.436;6.544;2023-02-15T10:13:32;102244.72;;;12.88;52.64
14117;BME280;7137;51.436;6.544;2023-02-15T10:16:49;102240.44;;;12.82;53.90
14117;BME280;7137;51.436;6.544;2023-02-15T10:20:06;102235.38;;;12.71;56.58
14117;BME280;7137;51.436;6.544;2023-02-15T10:23:22;102241.19;;;12.33;55.76
14117;BME280;7137;51.436;6.544;2023-02-15T10:26:29;102236.91;;;12.26;57.17
14117;BME280;7137;51.436;6.544;2023-02-15T10:29:36;102237.75;;;11.57;58.71
14117;BME280;7137;51.436;6.544;2023-02-15T10:32:50;102233.09;;;10.95;60.23
14117;BME280;7137;51.436;6.544;2023-02-15T10:36:04;102236.69;;;10.86;59.92
14117;BME280;7137;51.436;6.544;2023-02-15T10:39:13;102232.81;;;11.28;61.02
14117;BME280;7137;51.436;6.544;2023-02-15T10:42:25;102232.69;;;11.38;61.71
14117;BME280;7137;51.436;6.544;2023-02-15T10:45:35;102221.38;;;11.40;60.06
14117;BME280;7137;51.436;6.544;2023-02-15T10:49:11;102219.72;;;11.30;60.97
14117;BME280;7137;51.436;6.544;2023-02-15T10:52:25;102216.59;;;10.90;60.73
14117;BME280;7137;51.436;6.544;2023-02-15T10:55:42;102223.69;;;10.76;61.71
14117;BME280;7137;51.436;6.544;2023-02-15T10:59:00;102211.44;;;10.81;62.43
14117;BME280;7137;51.436;6.544;2023-02-15T11:02:15;102217.50;;;10.87;63.32
14117;BME280;7137;51.436;6.544;2023-02-15T11:05:37;102220.75;;;11.11;62.17
14117;BME280;7137;51.436;6.544;2023-02-15T11:08:42;102215.38;;;11.29;62.23
14117;BME280;7137;51.436;6.544;2023-02-15T11:11:48;102206.31;;;11.59;60.19
14117;BME280;7137;51.436;6.544;2023-02-15T11:14:57;102208.25;;;11.39;60.38
14117;BME280;7137;51.436;6.544;2023-02-15T11:18:03;102208.19;;;11.46;62.01
14117;BME280;7137;51.436;6.544;2023-02-15T11:21:12;102206.38;;;11.51;59.44
14117;BME280;7137;51.436;6.544;2023-02-15T11:24:20;102200.88;;;11.76;60.48
14117;BME280;7137;51.436;6.544;2023-02-15T11:27:25;102212.84;;;11.98;58.89
14117;BME280;7137;51.436;6.544;2023-02-15T11:30:37;102207.94;;;12.35;58.21
14117;BME280;7137;51.436;6.544;2023-02-15T11:33:46;102200.19;;;12.85;59.21
14117;BME280;7137;51.436;6.544;2023-02-15T11:36:53;102195.22;;;13.20;55.05
14117;BME280;7137;51.436;6.544;2023-02-15T11:39:56;102186.56;;;13.14;53.95
14117;BME280;7137;51.436;6.544;2023-02-15T11:43:02;102180.25;;;13.25;54.14
14117;BME280;7137;51.436;6.544;2023-02-15T11:46:05;102178.38;;;13.32;55.23
14117;BME280;7137;51.436;6.544;2023-02-15T11:49:21;102170.97;;;13.94;53.10
14117;BME280;7137;51.436;6.544;2023-02-15T11:52:25;102164.13;;;14.25;52.75
14117;BME280;7137;51.436;6.544;2023-02-15T11:55:27;102167.59;;;14.65;51.25
14117;BME280;7137;51.436;6.544;2023-02-15T11:58:34;102155.69;;;14.48;51.95
14117;BME280;7137;51.436;6.544;2023-02-15T12:01:42;102158.16;;;14.17;52.08
14117;BME280;7137;51.436;6.544;2023-02-15T12:04:48;102151.44;;;14.06;52.91
14117;BME280;7137;51.436;6.544;2023-02-15T12:07:55;102146.44;;;13.95;52.07
14117;BME280;7137;51.436;6.544;2023-02-15T12:11:03;102141.75;;;13.69;52.89
14117;BME280;7137;51.436;6.544;2023-02-15T12:14:09;102135.13;;;13.51;53.72
14117;BME280;7137;51.436;6.544;2023-02-15T12:17:13;102138.25;;;13.69;52.71
14117;BME280;7137;51.436;6.544;2023-02-15T12:20:24;102133.94;;;13.66;53.28
14117;BME280;7137;51.436;6.544;2023-02-15T12:23:32;102141.28;;;13.49;53.82
14117;BME280;7137;51.436;6.544;2023-02-15T12:26:34;102132.94;;;13.30;54.18
14117;BME280;7137;51.436;6.544;2023-02-15T12:29:41;102127.25;;;13.05;54.58
14117;BME280;7137;51.436;6.544;2023-02-15T12:32:49;102130.59;;;12.67;54.90
14117;BME280;7137;51.436;6.544;2023-02-15T12:35:57;102120.81;;;12.75;55.45
14117;BME280;7137;51.436;6.544;2023-02-15T12:39:17;102123.53;;;12.70;56.62
14117;BME280;7137;51.436;6.544;2023-02-15T12:42:19;102120.06;;;12.68;58.35
14117;BME280;7137;51.436;6.544;2023-02-15T12:45:25;102115.44;;;12.83;54.85
14117;BME280;7137;51.436;6.544;2023-02-15T12:48:26;102112.91;;;12.76;55.14
14117;BME280;7137;51.436;6.544;2023-02-15T12:51:28;102106.03;;;12.71;55.45
14117;BME280;7137;51.436;6.544;2023-02-15T12:54:34;102103.44;;;12.69;57.05
14117;BME280;7137;51.436;6.544;2023-02-15T12:57:36;102102.38;;;12.78;55.73
14117;BME280;7137;51.436;6.544;2023-02-15T13:00:38;102099.06;;;12.70;55.09
14117;BME280;7137;51.436;6.544;2023-02-15T13:03:56;102091.94;;;12.76;56.40
14117;BME280;7137;51.436;6.544;2023-02-15T13:07:01;102090.97;;;12.81;56.38
14117;BME280;7137;51.436;6.544;2023-02-15T13:10:20;102083.91;;;12.86;56.62
14117;BME280;7137;51.436;6.544;2023-02-15T13:13:25;102074.06;;;12.98;56.46
14117;BME280;7137;51.436;6.544;2023-02-15T13:16:30;102066.97;;;13.02;56.36
14117;BME280;7137;51.436;6.544;2023-02-15T13:19:36;102064.34;;;13.02;57.20
14117;BME280;7137;51.436;6.544;2023-02-15T13:22:42;102066.84;;;13.10;56.52
14117;BME280;7137;51.436;6.544;2023-02-15T13:25:47;102055.53;;;13.06;55.30
14117;BME280;7137;51.436;6.544;2023-02-15T13:28:52;102053.75;;;13.06;55.35
14117;BME280;7137;51.436;6.544;2023-02-15T13:31:57;102059.66;;;13.19;56.55
14117;BME280;7137;51.436;6.544;2023-02-15T13:35:04;102058.69;;;13.25;54.70
14117;BME280;7137;51.436;6.544;2023-02-15T13:38:22;102047.31;;;13.24;56.34
14117;BME280;7137;51.436;6.544;2023-02-15T13:41:32;102050.63;;;13.32;56.30
14117;BME280;7137;51.436;6.544;2023-02-15T13:44:51;102041.56;;;13.47;54.92
14117;BME280;7137;51.436;6.544;2023-02-15T13:48:00;102047.59;;;13.52;54.90
14117;BME280;7137;51.436;6.544;2023-02-15T13:51:11;102042.00;;;13.68;55.49
14117;BME280;7137;51.436;6.544;2023-02-15T13:54:36;102042.31;;;13.91;52.83
14117;BME280;7137;51.436;6.544;2023-02-15T13:58:01;102043.84;;;14.00;52.06
14117;BME280;7137;51.436;6.544;2023-02-15T14:01:10;102048.78;;;14.13;50.77
14117;BME280;7137;51.436;6.544;2023-02-15T14:04:29;102042.53;;;14.17;50.59
14117;BME280;7137;51.436;6.544;2023-02-15T14:07:49;102043.91;;;13.98;51.82
14117;BME280;7137;51.436;6.544;2023-02-15T14:10:59;102042.44;;;13.86;51.80
14117;BME280;7137;51.436;6.544;2023-02-15T14:17:41;102030.91;;;13.92;50.53
14117;BME280;7137;51.436;6.544;2023-02-15T14:20:56;102026.88;;;13.77;51.35
14117;BME280;7137;51.436;6.544;2023-02-15T14:24:08;102021.78;;;13.71;52.66
14117;BME280;7137;51.436;6.544;2023-02-15T14:27:22;102024.34;;;13.73;52.84
14117;BME280;7137;51.436;6.544;2023-02-15T14:30:31;102018.03;;;13.81;51.29
14117;BME280;7137;51.436;6.544;2023-02-15T14:33:37;102018.94;;;13.79;51.10
14117;BME280;7137;51.436;6.544;2023-02-15T14:36:40;102008.72;;;13.68;51.85
14117;BME280;7137;51.436;6.544;2023-02-15T14:39:47;102010.16;;;13.81;51.80
14117;BME280;7137;51.436;6.544;2023-02-15T14:43:15;102007.91;;;13.66;51.47
14117;BME280;7137;51.436;6.544;2023-02-15T14:46:26;102009.13;;;13.51;51.72
14117;BME280;7137;51.436;6.544;2023-02-15T14:49:33;102002.09;;;13.52;52.55
14117;BME280;7137;51.436;6.544;2023-02-15T14:56:22;102002.53;;;13.71;51.99
14117;BME280;7137;51.436;6.544;2023-02-15T14:59:24;101996.59;;;13.62;52.89
14117;BME280;7137;51.436;6.544;2023-02-15T15:02:29;102001.66;;;13.70;53.33
14117;BME280;7137;51.436;6.544;2023-02-15T15:05:47;101997.06;;;13.78;53.28
14117;BME280;7137;51.436;6.544;2023-02-15T15:09:00;101999.81;;;13.74;52.32
14117;BME280;7137;51.436;6.544;2023-02-15T15:15:34;102000.41;;;13.86;52.04
14117;BME280;7137;51.436;6.544;2023-02-15T15:18:48;102003.16;;;13.82;53.10
14117;BME280;7137;51.436;6.544;2023-02-15T15:21:54;102005.06;;;13.74;53.23
14117;BME280;7137;51.436;6.544;2023-02-15T15:24:57;102005.81;;;13.79;54.20
14117;BME280;7137;51.436;6.544;2023-02-15T15:27:59;102003.38;;;13.71;54.10
14117;BME280;7137;51.436;6.544;2023-02-15T15:31:04;102005.28;;;13.66;53.43
14117;BME280;7137;51.436;6.544;2023-02-15T15:34:42;102003.88;;;13.51;55.13
14117;BME280;7137;51.436;6.544;2023-02-15T15:38:10;102011.97;;;13.41;56.02
14117;BME280;7137;51.436;6.544;2023-02-15T15:41:25;102010.25;;;13.40;55.57
14117;BME280;7137;51.436;6.544;2023-02-15T15:44:56;102014.19;;;13.19;57.12
14117;BME280;7137;51.436;6.544;2023-02-15T15:48:20;102010.78;;;13.14;56.98
14117;BME280;7137;51.436;6.544;2023-02-15T15:51:29;102016.19;;;13.04;57.60
14117;BME280;7137;51.436;6.544;2023-02-15T15:54:31;102020.69;;;12.99;56.49
14117;BME280;7137;51.436;6.544;2023-02-15T15:57:35;102012.03;;;12.94;59.04
14117;BME280;7137;51.436;6.544;2023-02-15T16:00:42;102015.72;;;12.86;58.40
14117;BME280;7137;51.436;6.544;2023-02-15T16:03:49;102007.22;;;12.73;58.68
14117;BME280;7137;51.436;6.544;2023-02-15T16:06:53;102010.00;;;12.67;57.79
14117;BME280;7137;51.436;6.544;2023-02-15T16:09:56;102006.72;;;12.53;58.92
14117;BME280;7137;51.436;6.544;2023-02-15T16:12:58;102015.84;;;12.32;59.46
14117;BME280;7137;51.436;6.544;2023-02-15T16:16:00;102017.06;;;12.14;61.77
14117;BME280;7137;51.436;6.544;2023-02-15T16:19:02;102015.50;;;12.02;61.93
14117;BME280;7137;51.436;6.544;2023-02-15T16:22:11;102010.41;;;11.92;61.81
14117;BME280;7137;51.436;6.544;2023-02-15T16:25:31;102010.59;;;11.81;62.58
14117;BME280;7137;51.436;6.544;2023-02-15T16:28:36;102010.75;;;11.70;62.69
14117;BME280;7137;51.436;6.544;2023-02-15T16:31:39;102008.25;;;11.61;62.51
14117;BME280;7137;51.436;6.544;2023-02-15T16:34:50;102002.28;;;11.51;63.04
14117;BME280;7137;51.436;6.544;2023-02-15T16:37:54;101998.06;;;11.40;63.73
14117;BME280;7137;51.436;6.544;2023-02-15T16:40:58;101993.00;;;11.30;63.79
14117;BME280;7137;51.436;6.544;2023-02-15T16:44:06;102001.81;;;11.22;63.98
14117;BME280;7137;51.436;6.544;2023-02-15T16:47:15;101998.47;;;11.11;64.17